Archival Weather

Chicago O'Hare International

Chicago, Illinois (KORD)

Report from: Friday, December 2, 2022 8:03 AM CST
Current time: Friday, June 21, 2024 3:01 AM CDT

Current weather – Weather history – Daily summaries
Weather forecast

Temperature3.9°C (39.0°F)
Wind chill-1.0°C (30.2°F)
Dew point-5.0°C (23.0°F)
Winds 14 kts (7.2 m/s, 16.1 mph) South (180°)
Wind gusts 21 kts (10.8 m/s, 24.2 mph)
Visibility10 mi. (16.1 km)
Clouds Ceiling: Broken clouds 2,400 ft. (732 m)
Overcast 3,200 ft. (975 m)
Altimeter29.96 in.Hg (1015 mB)
Relative humidity52 %
Density altitude-1,321 ft. (-403 m)
Remarks Automated weather observing station with precipitation discriminator
Flight conditions Marginal Visual Meteorological Conditions
Raw dataKORD 021403Z 18014G21KT 10SM BKN024 OVC032 04/M05 A2996 RMK AO2 T00391050
An error has occurred. This application may no longer respond until reloaded. Reload 🗙